Wichita Falls, TX

12:55 PM CST on January 31, 2015 (GMT -0600)
Wichita Falls | Change Station
CLOSE
Current Station
Airport
Location: Wichita Falls,
Elevation: 997 ft
Nearby Weather Stations

Elev 997 ft 33.86 °N, 98.49 °W | Updated 20 minutes ago

Rain
Rain
38 °F
Feels Like 30 °F
N
10
Wind Variable Wind from ESE

Today
High -- | Low -- °F
--% Chance of Precip.
Yesterday
High -- | Low -- °F
Precip. -- in
7:31 AM 6:03 PM
Waxing Gibbous, 91% visible
Pressure 30.06 in
Visibility 5.0 miles
Clouds Mostly Cloudy 3000 ft
Mostly Cloudy 3800 ft
Overcast 5000 ft
Windchill 30 °F
Dew Point 34 °F
Humidity 88%
Rainfall 0.33 in
Snow Depth Not available.
UV 2 out of 12
Pollen 5.00 out of 12
Air Quality Not available.
Flu Activity Not available.
METAR KCWC 311835Z AUTO 12009KT 5SM RA BKN030 BKN038 OVC050 03/01 A3006 RMK AO2 P0007 T00310013

More Conditions Fewer Conditions

Pressure 30.06 in
Visibility 5.0 miles
Clouds Mostly Cloudy 3000 ft
Mostly Cloudy 3800 ft
Overcast 5000 ft
Windchill 30 °F
Dew Point 34 °F
Humidity 88%
Rainfall 0.33 in
Snow Depth Not available.
UV 2 out of 12
Pollen 5.00 out of 12
Air Quality Not available.
Flu Activity Not available.
METAR KCWC 311835Z AUTO 12009KT 5SM RA BKN030 BKN038 OVC050 03/01 A3006 RMK AO2 P0007 T00310013

More Conditions Fewer Conditions

10-Day Weather Forecast

Almanac

Astronomy

Jan. 31, 2015 Rise Set
Actual Time
Civil Twilight
Nautical Twilight
Astronomical Twilight
Moon
Length of Visible Light
Length of Day
Tomorrow will be .
, % of the Moon is Illuminated

Today's Extremes

State Highs State Lows

Community

WunderPhotos

Upload Photos

1,792,149 photos uploaded!

WunderBlogs® & News

Nearby

Air Quality

  Air Quality AQ Index Pollutant
Not available.

Snow Depth

Station Depth Elevation

Earthquake Activity

City Distance Mag. Time & Date
Minimum magnitude displayed is 2.5.

Coastal Water Temperatures

Place Temperature

Nearby Weather Stations